sensor_id;sensor_type;location;lat;lon;timestamp;P1;durP1;ratioP1;P2;durP2;ratioP2
63534;SDS011;55128;50.230;18.944;2024-03-08T00:01:03;60.92;;;35.97;;
63534;SDS011;55128;50.230;18.944;2024-03-08T00:06:04;63.70;;;39.13;;
63534;SDS011;55128;50.230;18.944;2024-03-08T00:11:06;66.43;;;36.03;;
63534;SDS011;55128;50.230;18.944;2024-03-08T00:16:06;63.63;;;36.53;;
63534;SDS011;55128;50.230;18.944;2024-03-08T00:21:07;61.25;;;40.20;;
63534;SDS011;55128;50.230;18.944;2024-03-08T00:26:08;56.65;;;31.92;;
63534;SDS011;55128;50.230;18.944;2024-03-08T00:31:09;60.75;;;33.35;;
63534;SDS011;55128;50.230;18.944;2024-03-08T00:36:10;62.63;;;33.67;;
63534;SDS011;55128;50.230;18.944;2024-03-08T00:41:10;68.57;;;34.90;;
63534;SDS011;55128;50.230;18.944;2024-03-08T00:46:10;63.70;;;34.90;;
63534;SDS011;55128;50.230;18.944;2024-03-08T00:51:11;70.40;;;36.53;;
63534;SDS011;55128;50.230;18.944;2024-03-08T00:56:11;64.68;;;34.17;;
63534;SDS011;55128;50.230;18.944;2024-03-08T01:01:12;64.57;;;33.60;;
63534;SDS011;55128;50.230;18.944;2024-03-08T01:06:15;61.45;;;31.10;;
63534;SDS011;55128;50.230;18.944;2024-03-08T01:11:16;55.53;;;31.85;;
63534;SDS011;55128;50.230;18.944;2024-03-08T01:16:17;64.70;;;34.10;;
63534;SDS011;55128;50.230;18.944;2024-03-08T01:21:17;63.22;;;34.88;;
63534;SDS011;55128;50.230;18.944;2024-03-08T01:26:17;66.65;;;35.17;;
63534;SDS011;55128;50.230;18.944;2024-03-08T01:31:18;60.60;;;33.40;;
63534;SDS011;55128;50.230;18.944;2024-03-08T01:36:18;63.92;;;36.92;;
63534;SDS011;55128;50.230;18.944;2024-03-08T01:41:19;51.90;;;30.00;;
63534;SDS011;55128;50.230;18.944;2024-03-08T01:46:20;57.97;;;31.75;;
63534;SDS011;55128;50.230;18.944;2024-03-08T01:51:22;57.22;;;34.20;;
63534;SDS011;55128;50.230;18.944;2024-03-08T01:56:23;53.97;;;33.92;;
63534;SDS011;55128;50.230;18.944;2024-03-08T02:01:25;56.45;;;33.38;;
63534;SDS011;55128;50.230;18.944;2024-03-08T02:06:25;50.80;;;29.25;;
63534;SDS011;55128;50.230;18.944;2024-03-08T02:11:26;54.15;;;29.95;;
63534;SDS011;55128;50.230;18.944;2024-03-08T02:16:26;55.95;;;29.17;;
63534;SDS011;55128;50.230;18.944;2024-03-08T02:21:27;57.25;;;29.38;;
63534;SDS011;55128;50.230;18.944;2024-03-08T02:26:29;55.03;;;32.10;;
63534;SDS011;55128;50.230;18.944;2024-03-08T02:31:30;65.47;;;44.93;;
63534;SDS011;55128;50.230;18.944;2024-03-08T02:36:30;54.47;;;34.17;;
63534;SDS011;55128;50.230;18.944;2024-03-08T02:41:34;53.47;;;29.38;;
63534;SDS011;55128;50.230;18.944;2024-03-08T02:46:35;73.60;;;52.30;;
63534;SDS011;55128;50.230;18.944;2024-03-08T02:51:35;55.38;;;28.92;;
63534;SDS011;55128;50.230;18.944;2024-03-08T02:56:36;51.90;;;28.65;;
63534;SDS011;55128;50.230;18.944;2024-03-08T03:01:37;52.80;;;29.35;;
63534;SDS011;55128;50.230;18.944;2024-03-08T03:06:38;63.10;;;36.50;;
63534;SDS011;55128;50.230;18.944;2024-03-08T03:11:38;56.08;;;30.88;;
63534;SDS011;55128;50.230;18.944;2024-03-08T03:16:39;91.43;;;43.20;;
63534;SDS011;55128;50.230;18.944;2024-03-08T03:21:40;64.10;;;38.72;;
63534;SDS011;55128;50.230;18.944;2024-03-08T03:26:43;55.33;;;31.45;;
63534;SDS011;55128;50.230;18.944;2024-03-08T03:31:43;62.28;;;30.52;;
63534;SDS011;55128;50.230;18.944;2024-03-08T03:36:46;59.60;;;28.83;;
63534;SDS011;55128;50.230;18.944;2024-03-08T03:41:48;51.20;;;28.73;;
63534;SDS011;55128;50.230;18.944;2024-03-08T03:46:51;53.50;;;28.67;;
63534;SDS011;55128;50.230;18.944;2024-03-08T03:51:52;49.92;;;28.45;;
63534;SDS011;55128;50.230;18.944;2024-03-08T03:56:52;50.78;;;30.90;;
63534;SDS011;55128;50.230;18.944;2024-03-08T04:01:53;54.08;;;33.47;;
63534;SDS011;55128;50.230;18.944;2024-03-08T04:06:54;51.70;;;29.13;;
63534;SDS011;55128;50.230;18.944;2024-03-08T04:11:54;45.92;;;27.80;;
63534;SDS011;55128;50.230;18.944;2024-03-08T04:16:56;53.58;;;31.10;;
63534;SDS011;55128;50.230;18.944;2024-03-08T04:21:56;53.42;;;29.50;;
63534;SDS011;55128;50.230;18.944;2024-03-08T04:26:57;47.17;;;27.58;;
63534;SDS011;55128;50.230;18.944;2024-03-08T04:31:58;52.05;;;31.70;;
63534;SDS011;55128;50.230;18.944;2024-03-08T04:36:59;51.30;;;29.38;;
63534;SDS011;55128;50.230;18.944;2024-03-08T04:42:02;48.22;;;28.00;;
63534;SDS011;55128;50.230;18.944;2024-03-08T04:47:10;52.75;;;30.95;;
63534;SDS011;55128;50.230;18.944;2024-03-08T04:52:11;52.00;;;29.52;;
63534;SDS011;55128;50.230;18.944;2024-03-08T04:57:12;54.67;;;34.83;;
63534;SDS011;55128;50.230;18.944;2024-03-08T05:02:12;54.08;;;33.95;;
63534;SDS011;55128;50.230;18.944;2024-03-08T05:07:12;52.00;;;29.90;;
63534;SDS011;55128;50.230;18.944;2024-03-08T05:12:13;48.25;;;27.00;;
63534;SDS011;55128;50.230;18.944;2024-03-08T05:17:13;49.70;;;30.33;;
63534;SDS011;55128;50.230;18.944;2024-03-08T05:22:13;54.22;;;32.13;;
63534;SDS011;55128;50.230;18.944;2024-03-08T05:27:14;55.85;;;31.58;;
63534;SDS011;55128;50.230;18.944;2024-03-08T05:32:14;49.83;;;28.95;;
63534;SDS011;55128;50.230;18.944;2024-03-08T05:37:15;52.60;;;30.23;;
63534;SDS011;55128;50.230;18.944;2024-03-08T05:42:15;51.17;;;30.02;;
63534;SDS011;55128;50.230;18.944;2024-03-08T05:47:16;41.40;;;24.65;;
63534;SDS011;55128;50.230;18.944;2024-03-08T05:52:16;46.80;;;28.23;;
63534;SDS011;55128;50.230;18.944;2024-03-08T05:57:16;48.13;;;27.87;;
63534;SDS011;55128;50.230;18.944;2024-03-08T06:02:17;42.92;;;25.13;;
63534;SDS011;55128;50.230;18.944;2024-03-08T06:07:19;42.03;;;24.15;;
63534;SDS011;55128;50.230;18.944;2024-03-08T06:12:20;40.33;;;23.73;;
63534;SDS011;55128;50.230;18.944;2024-03-08T06:17:21;37.08;;;24.15;;
63534;SDS011;55128;50.230;18.944;2024-03-08T06:22:25;40.45;;;24.70;;
63534;SDS011;55128;50.230;18.944;2024-03-08T06:27:25;45.08;;;25.50;;
63534;SDS011;55128;50.230;18.944;2024-03-08T06:32:26;41.53;;;24.58;;
63534;SDS011;55128;50.230;18.944;2024-03-08T06:37:26;33.05;;;20.23;;
63534;SDS011;55128;50.230;18.944;2024-03-08T06:42:27;35.90;;;24.35;;
63534;SDS011;55128;50.230;18.944;2024-03-08T06:47:28;40.55;;;23.00;;
63534;SDS011;55128;50.230;18.944;2024-03-08T06:52:28;39.97;;;22.57;;
63534;SDS011;55128;50.230;18.944;2024-03-08T06:57:29;31.88;;;19.77;;
63534;SDS011;55128;50.230;18.944;2024-03-08T07:02:29;30.48;;;18.95;;
63534;SDS011;55128;50.230;18.944;2024-03-08T07:07:30;32.35;;;20.15;;
63534;SDS011;55128;50.230;18.944;2024-03-08T07:12:31;31.58;;;21.30;;
63534;SDS011;55128;50.230;18.944;2024-03-08T07:17:32;29.70;;;20.02;;
63534;SDS011;55128;50.230;18.944;2024-03-08T07:22:35;27.52;;;18.75;;
63534;SDS011;55128;50.230;18.944;2024-03-08T07:27:37;30.75;;;19.45;;
63534;SDS011;55128;50.230;18.944;2024-03-08T07:32:37;32.33;;;19.87;;
63534;SDS011;55128;50.230;18.944;2024-03-08T07:37:38;34.90;;;22.90;;
63534;SDS011;55128;50.230;18.944;2024-03-08T07:42:39;33.08;;;20.75;;
63534;SDS011;55128;50.230;18.944;2024-03-08T07:47:40;32.15;;;22.38;;
63534;SDS011;55128;50.230;18.944;2024-03-08T07:52:40;33.10;;;19.70;;
63534;SDS011;55128;50.230;18.944;2024-03-08T07:57:41;27.10;;;17.48;;
63534;SDS011;55128;50.230;18.944;2024-03-08T08:02:43;35.75;;;21.95;;
63534;SDS011;55128;50.230;18.944;2024-03-08T08:07:45;33.40;;;20.02;;
63534;SDS011;55128;50.230;18.944;2024-03-08T08:12:46;28.65;;;18.92;;
63534;SDS011;55128;50.230;18.944;2024-03-08T08:17:46;33.30;;;20.40;;
63534;SDS011;55128;50.230;18.944;2024-03-08T08:22:51;30.38;;;18.95;;
63534;SDS011;55128;50.230;18.944;2024-03-08T08:27:52;33.57;;;21.37;;
63534;SDS011;55128;50.230;18.944;2024-03-08T08:32:53;30.98;;;19.83;;
63534;SDS011;55128;50.230;18.944;2024-03-08T08:37:55;31.67;;;19.67;;
63534;SDS011;55128;50.230;18.944;2024-03-08T08:42:56;29.67;;;19.27;;
63534;SDS011;55128;50.230;18.944;2024-03-08T08:47:59;30.10;;;18.58;;
63534;SDS011;55128;50.230;18.944;2024-03-08T08:53:00;32.15;;;19.20;;
63534;SDS011;55128;50.230;18.944;2024-03-08T08:58:00;27.70;;;17.50;;
63534;SDS011;55128;50.230;18.944;2024-03-08T09:03:01;29.52;;;18.67;;
63534;SDS011;55128;50.230;18.944;2024-03-08T09:08:02;28.60;;;18.50;;
63534;SDS011;55128;50.230;18.944;2024-03-08T09:13:03;27.67;;;17.38;;
63534;SDS011;55128;50.230;18.944;2024-03-08T09:18:04;28.15;;;17.80;;
63534;SDS011;55128;50.230;18.944;2024-03-08T09:23:06;29.30;;;18.20;;
63534;SDS011;55128;50.230;18.944;2024-03-08T09:28:06;26.85;;;18.63;;
63534;SDS011;55128;50.230;18.944;2024-03-08T09:33:06;29.20;;;19.67;;
63534;SDS011;55128;50.230;18.944;2024-03-08T09:38:07;28.77;;;19.63;;
63534;SDS011;55128;50.230;18.944;2024-03-08T09:43:12;26.17;;;18.13;;
63534;SDS011;55128;50.230;18.944;2024-03-08T09:48:13;34.05;;;20.33;;
63534;SDS011;55128;50.230;18.944;2024-03-08T09:53:15;31.25;;;19.88;;
63534;SDS011;55128;50.230;18.944;2024-03-08T09:58:16;29.05;;;19.40;;
63534;SDS011;55128;50.230;18.944;2024-03-08T10:03:20;30.08;;;19.52;;
63534;SDS011;55128;50.230;18.944;2024-03-08T10:08:20;31.75;;;25.70;;
63534;SDS011;55128;50.230;18.944;2024-03-08T10:13:20;30.60;;;20.17;;
63534;SDS011;55128;50.230;18.944;2024-03-08T10:18:21;29.80;;;20.38;;
63534;SDS011;55128;50.230;18.944;2024-03-08T10:23:22;29.33;;;18.98;;
63534;SDS011;55128;50.230;18.944;2024-03-08T10:28:23;31.73;;;17.42;;
63534;SDS011;55128;50.230;18.944;2024-03-08T10:33:24;28.23;;;19.48;;
63534;SDS011;55128;50.230;18.944;2024-03-08T10:38:25;26.55;;;18.13;;
63534;SDS011;55128;50.230;18.944;2024-03-08T10:43:26;26.48;;;18.23;;
63534;SDS011;55128;50.230;18.944;2024-03-08T10:48:31;26.30;;;18.08;;
63534;SDS011;55128;50.230;18.944;2024-03-08T10:53:32;26.63;;;17.98;;
63534;SDS011;55128;50.230;18.944;2024-03-08T10:58:34;26.70;;;17.60;;
63534;SDS011;55128;50.230;18.944;2024-03-08T11:08:40;25.40;;;16.35;;
63534;SDS011;55128;50.230;18.944;2024-03-08T11:13:41;26.67;;;16.85;;
63534;SDS011;55128;50.230;18.944;2024-03-08T11:18:43;28.13;;;18.25;;
63534;SDS011;55128;50.230;18.944;2024-03-08T11:23:43;24.92;;;18.02;;
63534;SDS011;55128;50.230;18.944;2024-03-08T11:29:51;25.88;;;18.15;;
63534;SDS011;55128;50.230;18.944;2024-03-08T11:34:36;27.67;;;18.50;;
63534;SDS011;55128;50.230;18.944;2024-03-08T11:39:37;25.83;;;17.70;;
63534;SDS011;55128;50.230;18.944;2024-03-08T11:44:39;27.52;;;18.15;;
63534;SDS011;55128;50.230;18.944;2024-03-08T11:49:44;27.48;;;17.58;;
63534;SDS011;55128;50.230;18.944;2024-03-08T11:54:48;29.88;;;19.20;;
63534;SDS011;55128;50.230;18.944;2024-03-08T11:59:54;26.33;;;17.95;;
63534;SDS011;55128;50.230;18.944;2024-03-08T12:04:59;27.95;;;17.20;;
63534;SDS011;55128;50.230;18.944;2024-03-08T12:10:19;29.05;;;18.73;;
63534;SDS011;55128;50.230;18.944;2024-03-08T12:15:23;30.05;;;20.20;;
63534;SDS011;55128;50.230;18.944;2024-03-08T12:20:24;35.40;;;22.35;;
63534;SDS011;55128;50.230;18.944;2024-03-08T12:25:32;29.48;;;18.90;;
63534;SDS011;55128;50.230;18.944;2024-03-08T12:30:43;33.55;;;19.70;;
63534;SDS011;55128;50.230;18.944;2024-03-08T12:35:50;34.08;;;20.80;;
63534;SDS011;55128;50.230;18.944;2024-03-08T12:41:00;78.75;;;40.53;;
63534;SDS011;55128;50.230;18.944;2024-03-08T12:46:01;32.28;;;20.63;;
63534;SDS011;55128;50.230;18.944;2024-03-08T12:51:01;33.33;;;20.65;;
63534;SDS011;55128;50.230;18.944;2024-03-08T12:56:02;30.15;;;18.75;;
63534;SDS011;55128;50.230;18.944;2024-03-08T13:01:08;33.50;;;21.23;;
63534;SDS011;55128;50.230;18.944;2024-03-08T13:06:08;35.38;;;21.77;;
63534;SDS011;55128;50.230;18.944;2024-03-08T13:11:09;35.65;;;21.73;;
63534;SDS011;55128;50.230;18.944;2024-03-08T13:16:14;36.47;;;25.65;;
63534;SDS011;55128;50.230;18.944;2024-03-08T13:21:19;33.20;;;21.40;;
63534;SDS011;55128;50.230;18.944;2024-03-08T13:26:19;33.20;;;21.73;;
63534;SDS011;55128;50.230;18.944;2024-03-08T13:31:21;32.88;;;20.25;;
63534;SDS011;55128;50.230;18.944;2024-03-08T13:36:21;31.83;;;19.60;;
63534;SDS011;55128;50.230;18.944;2024-03-08T13:41:21;44.17;;;24.60;;
63534;SDS011;55128;50.230;18.944;2024-03-08T13:46:24;34.95;;;21.80;;
63534;SDS011;55128;50.230;18.944;2024-03-08T13:51:26;31.27;;;20.92;;
63534;SDS011;55128;50.230;18.944;2024-03-08T13:56:27;33.87;;;20.50;;
63534;SDS011;55128;50.230;18.944;2024-03-08T14:01:29;34.03;;;21.08;;
63534;SDS011;55128;50.230;18.944;2024-03-08T14:06:30;35.25;;;21.08;;
63534;SDS011;55128;50.230;18.944;2024-03-08T14:11:30;36.63;;;20.67;;
63534;SDS011;55128;50.230;18.944;2024-03-08T14:16:30;30.83;;;19.98;;
63534;SDS011;55128;50.230;18.944;2024-03-08T14:21:31;31.88;;;20.10;;
63534;SDS011;55128;50.230;18.944;2024-03-08T14:26:32;32.33;;;21.20;;
63534;SDS011;55128;50.230;18.944;2024-03-08T14:31:34;35.58;;;20.48;;
63534;SDS011;55128;50.230;18.944;2024-03-08T14:36:36;32.08;;;20.45;;
63534;SDS011;55128;50.230;18.944;2024-03-08T14:41:38;30.48;;;19.58;;
63534;SDS011;55128;50.230;18.944;2024-03-08T14:46:38;28.97;;;19.53;;
63534;SDS011;55128;50.230;18.944;2024-03-08T14:51:38;32.90;;;21.17;;
63534;SDS011;55128;50.230;18.944;2024-03-08T14:56:39;28.63;;;20.42;;
63534;SDS011;55128;50.230;18.944;2024-03-08T15:01:43;31.48;;;20.63;;
63534;SDS011;55128;50.230;18.944;2024-03-08T15:06:44;31.85;;;20.20;;
63534;SDS011;55128;50.230;18.944;2024-03-08T15:11:48;28.93;;;20.43;;
63534;SDS011;55128;50.230;18.944;2024-03-08T15:16:49;31.25;;;19.98;;
63534;SDS011;55128;50.230;18.944;2024-03-08T15:21:51;30.55;;;19.83;;
63534;SDS011;55128;50.230;18.944;2024-03-08T15:26:56;29.20;;;19.73;;
63534;SDS011;55128;50.230;18.944;2024-03-08T15:31:57;31.98;;;20.60;;
63534;SDS011;55128;50.230;18.944;2024-03-08T15:36:58;28.77;;;19.70;;
63534;SDS011;55128;50.230;18.944;2024-03-08T15:42:02;29.63;;;20.02;;
63534;SDS011;55128;50.230;18.944;2024-03-08T15:47:02;31.13;;;20.10;;
63534;SDS011;55128;50.230;18.944;2024-03-08T15:52:03;32.13;;;20.40;;
63534;SDS011;55128;50.230;18.944;2024-03-08T15:57:06;31.10;;;19.85;;
63534;SDS011;55128;50.230;18.944;2024-03-08T16:02:12;34.35;;;20.73;;
63534;SDS011;55128;50.230;18.944;2024-03-08T16:07:13;30.38;;;19.83;;
63534;SDS011;55128;50.230;18.944;2024-03-08T16:12:13;35.83;;;21.30;;
63534;SDS011;55128;50.230;18.944;2024-03-08T16:17:15;32.30;;;20.45;;
63534;SDS011;55128;50.230;18.944;2024-03-08T16:22:17;34.97;;;20.85;;
63534;SDS011;55128;50.230;18.944;2024-03-08T16:27:17;34.75;;;21.20;;
63534;SDS011;55128;50.230;18.944;2024-03-08T16:32:18;32.25;;;20.52;;
63534;SDS011;55128;50.230;18.944;2024-03-08T16:37:20;32.42;;;21.63;;
63534;SDS011;55128;50.230;18.944;2024-03-08T16:42:22;32.28;;;21.15;;
63534;SDS011;55128;50.230;18.944;2024-03-08T16:47:23;30.60;;;20.17;;
63534;SDS011;55128;50.230;18.944;2024-03-08T16:52:23;33.03;;;20.80;;
63534;SDS011;55128;50.230;18.944;2024-03-08T16:57:24;35.97;;;22.60;;
63534;SDS011;55128;50.230;18.944;2024-03-08T17:02:25;42.08;;;24.52;;
63534;SDS011;55128;50.230;18.944;2024-03-08T17:07:26;57.53;;;35.28;;
63534;SDS011;55128;50.230;18.944;2024-03-08T17:12:27;49.38;;;27.60;;
63534;SDS011;55128;50.230;18.944;2024-03-08T17:17:27;47.28;;;28.75;;
63534;SDS011;55128;50.230;18.944;2024-03-08T17:22:27;38.83;;;23.85;;
63534;SDS011;55128;50.230;18.944;2024-03-08T17:27:28;46.25;;;25.40;;
63534;SDS011;55128;50.230;18.944;2024-03-08T17:32:29;39.75;;;24.35;;
63534;SDS011;55128;50.230;18.944;2024-03-08T17:37:33;43.38;;;25.45;;
63534;SDS011;55128;50.230;18.944;2024-03-08T17:42:34;46.95;;;23.80;;
63534;SDS011;55128;50.230;18.944;2024-03-08T17:47:34;40.92;;;22.90;;
63534;SDS011;55128;50.230;18.944;2024-03-08T17:52:34;42.45;;;25.88;;
63534;SDS011;55128;50.230;18.944;2024-03-08T17:57:36;40.63;;;25.35;;
63534;SDS011;55128;50.230;18.944;2024-03-08T18:02:39;41.55;;;25.63;;
63534;SDS011;55128;50.230;18.944;2024-03-08T18:07:40;46.65;;;27.45;;
63534;SDS011;55128;50.230;18.944;2024-03-08T18:12:41;52.40;;;31.92;;
63534;SDS011;55128;50.230;18.944;2024-03-08T18:17:41;61.20;;;34.00;;
63534;SDS011;55128;50.230;18.944;2024-03-08T18:22:44;54.50;;;33.80;;
63534;SDS011;55128;50.230;18.944;2024-03-08T18:27:45;61.90;;;38.30;;
63534;SDS011;55128;50.230;18.944;2024-03-08T18:32:46;73.85;;;42.03;;
63534;SDS011;55128;50.230;18.944;2024-03-08T18:37:48;45.28;;;26.02;;
63534;SDS011;55128;50.230;18.944;2024-03-08T18:42:50;53.28;;;29.45;;
63534;SDS011;55128;50.230;18.944;2024-03-08T18:47:52;74.65;;;36.28;;
63534;SDS011;55128;50.230;18.944;2024-03-08T18:52:53;82.22;;;46.40;;
63534;SDS011;55128;50.230;18.944;2024-03-08T18:57:54;66.95;;;40.67;;
63534;SDS011;55128;50.230;18.944;2024-03-08T19:02:58;58.87;;;34.23;;
63534;SDS011;55128;50.230;18.944;2024-03-08T19:08:00;58.42;;;34.38;;
63534;SDS011;55128;50.230;18.944;2024-03-08T19:13:02;57.00;;;35.35;;
63534;SDS011;55128;50.230;18.944;2024-03-08T19:18:02;90.05;;;44.97;;
63534;SDS011;55128;50.230;18.944;2024-03-08T19:23:07;81.63;;;42.38;;
63534;SDS011;55128;50.230;18.944;2024-03-08T19:28:10;158.30;;;65.82;;
63534;SDS011;55128;50.230;18.944;2024-03-08T19:33:16;164.43;;;104.97;;
63534;SDS011;55128;50.230;18.944;2024-03-08T19:38:18;218.80;;;87.43;;
63534;SDS011;55128;50.230;18.944;2024-03-08T19:43:20;101.38;;;52.50;;
63534;SDS011;55128;50.230;18.944;2024-03-08T19:48:21;98.80;;;47.55;;
63534;SDS011;55128;50.230;18.944;2024-03-08T19:53:22;76.18;;;38.67;;
63534;SDS011;55128;50.230;18.944;2024-03-08T19:58:22;84.63;;;42.63;;
63534;SDS011;55128;50.230;18.944;2024-03-08T20:03:23;80.60;;;41.20;;
63534;SDS011;55128;50.230;18.944;2024-03-08T20:08:24;94.80;;;49.33;;
63534;SDS011;55128;50.230;18.944;2024-03-08T20:13:28;117.90;;;60.33;;
63534;SDS011;55128;50.230;18.944;2024-03-08T20:18:33;86.75;;;45.58;;
63534;SDS011;55128;50.230;18.944;2024-03-08T20:23:34;98.40;;;50.40;;
63534;SDS011;55128;50.230;18.944;2024-03-08T20:28:35;100.20;;;49.05;;
63534;SDS011;55128;50.230;18.944;2024-03-08T20:33:35;118.17;;;51.13;;
63534;SDS011;55128;50.230;18.944;2024-03-08T20:38:39;105.20;;;51.53;;
63534;SDS011;55128;50.230;18.944;2024-03-08T20:43:40;95.30;;;47.38;;
63534;SDS011;55128;50.230;18.944;2024-03-08T20:48:41;96.00;;;45.08;;
63534;SDS011;55128;50.230;18.944;2024-03-08T20:58:46;84.28;;;43.38;;
63534;SDS011;55128;50.230;18.944;2024-03-08T21:03:48;90.75;;;44.05;;
63534;SDS011;55128;50.230;18.944;2024-03-08T21:08:49;101.28;;;47.95;;
63534;SDS011;55128;50.230;18.944;2024-03-08T21:13:49;92.97;;;48.63;;
63534;SDS011;55128;50.230;18.944;2024-03-08T21:18:49;94.05;;;49.10;;
63534;SDS011;55128;50.230;18.944;2024-03-08T21:23:50;87.35;;;44.70;;
63534;SDS011;55128;50.230;18.944;2024-03-08T21:28:50;84.38;;;44.00;;
63534;SDS011;55128;50.230;18.944;2024-03-08T21:33:51;79.47;;;42.58;;
63534;SDS011;55128;50.230;18.944;2024-03-08T21:38:51;80.90;;;42.05;;
63534;SDS011;55128;50.230;18.944;2024-03-08T21:43:51;79.63;;;44.38;;
63534;SDS011;55128;50.230;18.944;2024-03-08T21:48:52;325.83;;;233.25;;
63534;SDS011;55128;50.230;18.944;2024-03-08T21:53:52;196.73;;;85.18;;
63534;SDS011;55128;50.230;18.944;2024-03-08T21:58:53;172.45;;;107.32;;
63534;SDS011;55128;50.230;18.944;2024-03-08T22:03:56;89.30;;;52.17;;
63534;SDS011;55128;50.230;18.944;2024-03-08T22:08:56;108.10;;;52.70;;
63534;SDS011;55128;50.230;18.944;2024-03-08T22:13:58;120.18;;;72.15;;
63534;SDS011;55128;50.230;18.944;2024-03-08T22:18:59;105.10;;;60.97;;
63534;SDS011;55128;50.230;18.944;2024-03-08T22:24:00;117.90;;;66.82;;
63534;SDS011;55128;50.230;18.944;2024-03-08T22:29:00;158.20;;;96.80;;
63534;SDS011;55128;50.230;18.944;2024-03-08T22:34:01;90.40;;;48.17;;
63534;SDS011;55128;50.230;18.944;2024-03-08T22:39:02;125.50;;;63.08;;
63534;SDS011;55128;50.230;18.944;2024-03-08T22:44:03;134.85;;;63.88;;
63534;SDS011;55128;50.230;18.944;2024-03-08T22:49:04;99.18;;;49.33;;
63534;SDS011;55128;50.230;18.944;2024-03-08T22:54:04;125.43;;;62.97;;
63534;SDS011;55128;50.230;18.944;2024-03-08T22:59:05;231.40;;;100.60;;
63534;SDS011;55128;50.230;18.944;2024-03-08T23:04:06;165.70;;;77.75;;
63534;SDS011;55128;50.230;18.944;2024-03-08T23:09:11;131.55;;;60.25;;
63534;SDS011;55128;50.230;18.944;2024-03-08T23:14:12;136.57;;;62.13;;
63534;SDS011;55128;50.230;18.944;2024-03-08T23:19:13;113.00;;;53.47;;
63534;SDS011;55128;50.230;18.944;2024-03-08T23:24:13;94.43;;;46.70;;
63534;SDS011;55128;50.230;18.944;2024-03-08T23:29:14;88.45;;;47.88;;
63534;SDS011;55128;50.230;18.944;2024-03-08T23:34:14;94.25;;;47.03;;
63534;SDS011;55128;50.230;18.944;2024-03-08T23:39:14;97.28;;;50.47;;
63534;SDS011;55128;50.230;18.944;2024-03-08T23:44:15;108.25;;;52.33;;
63534;SDS011;55128;50.230;18.944;2024-03-08T23:49:17;136.70;;;64.95;;
63534;SDS011;55128;50.230;18.944;2024-03-08T23:54:18;100.03;;;47.33;;
63534;SDS011;55128;50.230;18.944;2024-03-08T23:59:22;88.32;;;43.10;;
